Time;durP1;ratioP1;P1;durP2;ratioP2;P2;SDS_P1;SDS_P2;PMS_P1;PMS_P2;Temp;Humidity;BMP_temperature;BMP_pressure;BME280_temperature;BME280_humidity;BME280_pressure;Samples;Min_cycle;Max_cycle;Signal;HPM_P1;HPM_P2
2022/07/01 00:01:10;;;;;;;18.60;16.42;;;;;;;15.03;100.00;100707.69;5065272;28;20343;-77
2022/07/01 00:03:35;;;;;;;23.17;17.13;;;;;;;15.01;100.00;100709.16;5061029;28;20124;-77
2022/07/01 00:06:00;;;;;;;20.55;16.92;;;;;;;15.09;100.00;100713.13;5047594;28;20394;-77
2022/07/01 00:08:26;;;;;;;19.75;16.40;;;;;;;15.13;100.00;100708.56;5081853;28;20442;-77
2022/07/01 00:10:51;;;;;;;20.88;17.17;;;;;;;15.06;100.00;100714.53;5032167;28;20127;-77
2022/07/01 00:13:17;;;;;;;23.65;19.02;;;;;;;15.07;100.00;100717.00;5047081;28;20426;-76
2022/07/01 00:15:42;;;;;;;21.40;17.45;;;;;;;15.02;100.00;100727.34;5049168;28;20040;-77
2022/07/01 00:18:08;;;;;;;22.17;18.50;;;;;;;14.89;100.00;100740.91;5062871;28;20148;-76
2022/07/01 00:20:33;;;;;;;25.20;21.55;;;;;;;14.85;100.00;100748.16;5069231;28;20043;-78
2022/07/01 00:23:02;;;;;;;25.65;21.80;;;;;;;14.83;100.00;100736.63;5066238;28;20036;-78
2022/07/01 00:25:27;;;;;;;29.50;23.42;;;;;;;14.86;100.00;100729.69;5052832;28;20354;-78
2022/07/01 00:27:52;;;;;;;29.42;23.88;;;;;;;14.84;100.00;100734.72;5085907;28;20039;-76
2022/07/01 00:30:18;;;;;;;36.55;25.73;;;;;;;14.89;100.00;100734.59;5068499;28;20078;-77
2022/07/01 00:32:43;;;;;;;34.72;26.20;;;;;;;14.96;100.00;100745.19;5047525;28;20024;-78
2022/07/01 00:35:09;;;;;;;36.13;26.45;;;;;;;14.97;100.00;100738.50;5068491;28;20640;-77
2022/07/01 00:37:34;;;;;;;33.42;26.10;;;;;;;14.81;100.00;100746.38;5050268;28;20066;-77
2022/07/01 00:40:01;;;;;;;37.47;27.10;;;;;;;14.80;100.00;100753.00;5051351;28;20078;-79
2022/07/01 00:42:28;;;;;;;35.53;26.35;;;;;;;14.84;100.00;100762.31;5049555;28;20553;-77
2022/07/01 00:44:53;;;;;;;34.22;26.23;;;;;;;14.84;100.00;100757.59;5086335;28;20125;-79
2022/07/01 00:47:19;;;;;;;37.60;27.42;;;;;;;14.76;100.00;100752.81;5065525;28;20482;-78
2022/07/01 00:49:44;;;;;;;30.85;24.85;;;;;;;14.73;100.00;100758.16;5051156;28;20396;-77
2022/07/01 00:52:10;;;;;;;35.10;26.77;;;;;;;14.74;100.00;100759.78;5066191;28;20116;-78
2022/07/01 00:54:37;;;;;;;31.63;25.17;;;;;;;14.71;100.00;100764.00;5052439;28;20039;-78
2022/07/01 00:57:10;;;;;;;33.35;26.48;;;;;;;14.65;100.00;100757.75;5067647;28;20039;-77
2022/07/01 00:59:39;;;;;;;;;;;;;;;14.49;100.00;100757.28;5087939;28;20514;-78
2022/07/01 01:02:07;;;;;;;30.52;22.95;;;;;;;14.60;100.00;100740.53;5065228;28;20022;-77
2022/07/01 01:04:33;;;;;;;35.13;26.58;;;;;;;14.59;100.00;100736.94;5067266;28;20032;-78
2022/07/01 01:07:01;;;;;;;39.78;27.42;;;;;;;14.60;100.00;100740.53;5067287;28;20063;-79
2022/07/01 01:09:28;;;;;;;33.78;25.60;;;;;;;14.58;100.00;100740.81;5068356;28;20028;-77
2022/07/01 01:11:54;;;;;;;28.50;23.98;;;;;;;14.58;100.00;100740.00;5033119;28;20115;-78
2022/07/01 01:14:21;;;;;;;32.05;25.45;;;;;;;14.56;100.00;100739.47;5050910;28;20027;-78
2022/07/01 01:16:46;;;;;;;32.45;25.40;;;;;;;14.51;100.00;100743.16;5034541;28;20058;-78
2022/07/01 01:19:11;;;;;;;33.95;25.55;;;;;;;14.50;100.00;100745.09;5048245;28;20065;-77
2022/07/01 01:21:41;;;;;;;38.92;27.35;;;;;;;14.49;100.00;100745.41;5050596;28;20506;-78
2022/07/01 01:24:08;;;;;;;36.60;25.90;;;;;;;14.47;100.00;100747.69;5049564;28;20024;-78
2022/07/01 01:26:35;;;;;;;37.28;26.15;;;;;;;14.52;100.00;100753.06;5067605;28;20036;-78
2022/07/01 01:29:00;;;;;;;37.90;26.15;;;;;;;14.53;100.00;100757.47;5050977;28;20050;-78
2022/07/01 01:31:35;;;;;;;34.88;23.90;;;;;;;14.47;100.00;100762.28;5085226;28;20032;-78
2022/07/01 01:34:01;;;;;;;34.40;25.00;;;;;;;14.47;100.00;100759.50;5066581;28;20026;-79
2022/07/01 01:36:28;;;;;;;37.70;25.05;;;;;;;14.36;100.00;100760.88;5066238;28;20431;-78
2022/07/01 01:38:56;;;;;;;32.10;24.05;;;;;;;14.34;100.00;100760.38;5065439;28;20115;-78
2022/07/01 01:41:23;;;;;;;36.42;25.98;;;;;;;14.44;100.00;100754.63;5067517;28;20064;-78
2022/07/01 01:43:48;;;;;;;37.25;24.52;;;;;;;14.42;100.00;100762.38;5048921;28;20024;-77
2022/07/01 01:46:14;;;;;;;34.92;24.88;;;;;;;14.42;100.00;100764.34;5066325;28;20032;-77
2022/07/01 01:48:39;;;;;;;35.65;23.90;;;;;;;14.40;100.00;100774.88;5062946;28;20031;-78
2022/07/01 01:51:04;;;;;;;33.40;22.20;;;;;;;14.38;100.00;100782.63;5068091;28;20379;-78
2022/07/01 01:53:30;;;;;;;28.45;21.77;;;;;;;14.41;100.00;100785.56;5061415;28;20628;-77
2022/07/01 01:55:56;;;;;;;39.70;23.65;;;;;;;14.41;100.00;100790.28;5067389;28;20055;-77
2022/07/01 01:58:21;;;;;;;32.17;22.58;;;;;;;14.40;100.00;100802.47;5064274;28;20044;-78
2022/07/01 02:00:47;;;;;;;32.22;23.50;;;;;;;14.40;100.00;100800.50;5050087;28;20093;-77
2022/07/01 02:03:13;;;;;;;31.77;22.38;;;;;;;14.41;100.00;100806.84;5060478;28;20053;-76
2022/07/01 02:05:38;;;;;;;29.77;20.13;;;;;;;14.39;100.00;100812.66;5050187;28;20118;-78
2022/07/01 02:08:04;;;;;;;33.13;21.05;;;;;;;14.34;100.00;100804.50;5064783;28;20084;-79
2022/07/01 02:10:29;;;;;;;25.88;19.77;;;;;;;14.32;100.00;100801.22;5066351;28;20534;-77
2022/07/01 02:12:55;;;;;;;29.98;20.50;;;;;;;14.38;100.00;100799.16;5067231;28;20044;-78
2022/07/01 02:15:20;;;;;;;28.27;20.30;;;;;;;14.41;100.00;100787.53;5084996;28;20051;-77
2022/07/01 02:17:45;;;;;;;26.85;20.38;;;;;;;14.40;100.00;100791.44;5063775;28;20036;-77
2022/07/01 02:20:15;;;;;;;31.67;20.05;;;;;;;14.41;100.00;100801.31;5084732;28;20032;-77
2022/07/01 02:22:41;;;;;;;29.77;19.70;;;;;;;14.39;100.00;100800.81;5048578;28;20505;-78
2022/07/01 02:25:08;;;;;;;27.35;19.50;;;;;;;14.38;100.00;100808.28;5067627;28;20401;-77
2022/07/01 02:27:33;;;;;;;29.65;19.40;;;;;;;14.39;100.00;100820.13;5048839;28;20042;-77
2022/07/01 02:29:59;;;;;;;26.20;19.15;;;;;;;14.37;100.00;100827.91;5035086;28;20111;-78
2022/07/01 02:32:24;;;;;;;29.83;17.77;;;;;;;14.41;100.00;100826.13;5048944;28;20046;-77
2022/07/01 02:34:51;;;;;;;27.88;19.33;;;;;;;14.37;100.00;100825.13;5067317;28;20024;-78
2022/07/01 02:37:16;;;;;;;26.60;17.73;;;;;;;14.36;100.00;100832.56;5066756;28;20048;-77
2022/07/01 02:39:42;;;;;;;25.02;18.65;;;;;;;14.31;100.00;100829.94;5087927;28;20055;-78
2022/07/01 02:42:23;;;;;;;25.48;18.08;;;;;;;14.37;100.00;100836.16;5031552;28;20036;-79
2022/07/01 02:44:48;;;;;;;22.83;17.80;;;;;;;14.34;100.00;100838.41;5069897;28;20023;-78
2022/07/01 02:47:15;;;;;;;26.60;17.75;;;;;;;14.43;100.00;100834.91;5083025;28;20482;-78
2022/07/01 02:49:41;;;;;;;28.35;19.05;;;;;;;14.42;100.00;100845.13;5064527;28;20138;-78
2022/07/01 02:52:07;;;;;;;21.40;17.55;;;;;;;14.30;100.00;100845.66;5047536;28;20419;-77
2022/07/01 02:54:32;;;;;;;24.00;17.40;;;;;;;14.30;100.00;100848.44;5048166;28;20043;-77
2022/07/01 02:56:57;;;;;;;22.73;16.38;;;;;;;14.34;100.00;100841.16;5050155;28;20382;-79
2022/07/01 02:59:23;;;;;;;22.25;16.40;;;;;;;14.42;100.00;100839.63;5047512;28;20048;-77
2022/07/01 03:01:48;;;;;;;26.60;16.52;;;;;;;14.36;100.00;100835.34;5065140;28;20044;-78
2022/07/01 03:04:18;;;;;;;21.60;15.82;;;;;;;14.30;100.00;100842.91;5063504;28;20051;-77
2022/07/01 03:06:45;;;;;;;24.40;16.83;;;;;;;14.33;100.00;100847.81;5032798;28;20505;-78
2022/07/01 03:09:10;;;;;;;19.30;15.18;;;;;;;14.37;100.00;100839.72;5066249;28;20032;-77
2022/07/01 03:11:39;;;;;;;20.58;16.02;;;;;;;14.43;100.00;100846.78;5065710;28;20441;-78
2022/07/01 03:14:04;;;;;;;24.15;17.15;;;;;;;14.34;100.00;100846.66;5046468;28;20048;-79
2022/07/01 03:16:31;;;;;;;22.73;16.35;;;;;;;14.38;100.00;100848.81;5049061;28;20060;-78
2022/07/01 03:18:57;;;;;;;18.02;14.18;;;;;;;14.41;100.00;100853.72;5045529;28;20104;-78
2022/07/01 03:21:23;;;;;;;18.88;14.65;;;;;;;14.41;100.00;100864.75;5064201;28;20132;-77
2022/07/01 03:23:49;;;;;;;21.42;15.70;;;;;;;14.36;100.00;100851.88;5045719;28;20052;-77
2022/07/01 03:26:14;;;;;;;23.10;16.05;;;;;;;14.39;100.00;100855.97;5049893;28;20039;-78
2022/07/01 03:28:40;;;;;;;20.17;14.70;;;;;;;14.34;100.00;100863.22;5083311;28;20111;-78
2022/07/01 03:31:05;;;;;;;19.02;14.63;;;;;;;14.29;100.00;100862.50;5084257;28;20040;-78
2022/07/01 03:33:31;;;;;;;19.33;14.23;;;;;;;14.27;100.00;100867.53;5060813;28;20131;-79
2022/07/01 03:35:56;;;;;;;21.90;14.38;;;;;;;14.33;100.00;100869.03;5066892;28;20054;-78
2022/07/01 03:38:21;;;;;;;20.90;14.27;;;;;;;14.33;100.00;100869.03;5062816;28;20025;-77
2022/07/01 03:40:47;;;;;;;23.13;13.60;;;;;;;14.32;100.00;100873.75;5050355;28;20114;-79
2022/07/01 03:43:12;;;;;;;22.08;14.27;;;;;;;14.35;100.00;100883.34;5064495;28;20129;-78
2022/07/01 03:45:39;;;;;;;23.90;14.23;;;;;;;14.33;100.00;100880.91;5048063;28;20047;-77
2022/07/01 03:48:05;;;;;;;17.45;12.48;;;;;;;14.31;100.00;100899.72;5080287;28;20035;-78
2022/07/01 03:50:30;;;;;;;21.85;14.15;;;;;;;14.30;100.00;100897.25;5065392;28;20024;-77
2022/07/01 03:55:41;;;;;;;20.60;13.57;;;;;;;14.29;100.00;100904.69;5059330;28;20556;-77
2022/07/01 03:58:06;;;;;;;20.02;14.13;;;;;;;14.37;100.00;100908.69;5051282;28;20048;-78
2022/07/01 04:00:36;;;;;;;17.48;13.52;;;;;;;14.40;100.00;100910.84;5087401;28;20032;-80
2022/07/01 04:03:02;;;;;;;19.20;14.35;;;;;;;14.45;100.00;100910.72;5064512;28;20047;-78
2022/07/01 04:05:28;;;;;;;19.65;13.85;;;;;;;14.45;100.00;100924.53;5068131;28;20059;-78
2022/07/01 04:07:53;;;;;;;18.05;12.93;;;;;;;14.39;100.00;100928.50;5049808;28;20454;-78
2022/07/01 04:10:19;;;;;;;19.05;14.00;;;;;;;14.49;100.00;100931.06;5087522;28;20032;-78
2022/07/01 04:12:44;;;;;;;18.15;13.10;;;;;;;14.52;100.00;100924.09;5051877;28;20085;-78
2022/07/01 04:15:10;;;;;;;20.05;13.95;;;;;;;14.53;100.00;100926.56;5088586;28;20031;-78
2022/07/01 04:17:37;;;;;;;18.60;13.32;;;;;;;14.58;100.00;100933.13;5049027;28;20035;-77
2022/07/01 04:20:04;;;;;;;19.70;14.75;;;;;;;14.74;100.00;100936.38;5053550;28;20063;-78
2022/07/01 04:22:38;;;;;;;20.08;14.52;;;;;;;14.89;100.00;100947.94;5083147;28;20500;-79
2022/07/01 04:25:04;;;;;;;20.90;14.43;;;;;;;14.95;100.00;100956.91;5088713;28;20044;-77
2022/07/01 04:27:30;;;;;;;24.08;15.20;;;;;;;14.63;100.00;100969.72;5067731;28;20047;-78
2022/07/01 04:29:56;;;;;;;29.15;16.50;;;;;;;14.79;100.00;100964.72;5053182;28;20478;-78
2022/07/01 04:32:24;;;;;;;26.88;15.88;;;;;;;14.84;100.00;100963.78;5050534;28;20024;-77
2022/07/01 04:34:50;;;;;;;24.10;15.57;;;;;;;14.83;100.00;100964.91;5068669;28;20440;-75
2022/07/01 04:37:16;;;;;;;22.70;15.23;;;;;;;14.77;100.00;100968.91;5067817;28;20115;-77
2022/07/01 04:39:41;;;;;;;25.85;15.48;;;;;;;14.77;100.00;100975.22;5085993;28;20024;-76
2022/07/01 04:42:06;;;;;;;26.02;15.45;;;;;;;14.79;100.00;100981.28;5051499;28;20036;-77
2022/07/01 04:44:34;;;;;;;26.13;15.20;;;;;;;14.80;100.00;100982.88;5050206;28;20387;-77
2022/07/01 04:47:01;;;;;;;23.73;15.32;;;;;;;14.85;100.00;100979.22;5051155;28;20101;-77
2022/07/01 04:49:28;;;;;;;24.77;15.88;;;;;;;14.79;100.00;100985.97;5085255;28;20035;-77
2022/07/01 04:51:53;;;;;;;23.58;15.25;;;;;;;14.83;100.00;100992.50;5067066;28;20491;-79
2022/07/01 04:54:19;;;;;;;22.85;14.98;;;;;;;14.86;100.00;100995.47;5085576;28;20036;-78
2022/07/01 04:56:45;;;;;;;19.98;14.68;;;;;;;15.00;100.00;100989.94;5067396;28;20032;-80
2022/07/01 04:59:12;;;;;;;18.38;14.63;;;;;;;14.94;100.00;100979.28;5052399;28;20076;-79
2022/07/01 05:01:41;;;;;;;22.42;14.50;;;;;;;14.97;100.00;100990.56;5085461;28;20051;-80
2022/07/01 05:04:07;;;;;;;20.92;13.65;;;;;;;14.96;100.00;100991.69;5048402;28;20054;-80
2022/07/01 05:06:33;;;;;;;23.33;15.07;;;;;;;14.95;100.00;101001.06;5050624;28;20028;-79
2022/07/01 05:08:59;;;;;;;26.88;16.00;;;;;;;15.09;100.00;101005.78;5085471;28;20068;-80
2022/07/01 05:11:25;;;;;;;26.63;16.02;;;;;;;15.16;100.00;101017.22;5086126;28;20486;-80
2022/07/01 05:13:50;;;;;;;19.17;14.50;;;;;;;15.25;100.00;101016.19;5065084;28;20292;-80
2022/07/01 05:16:15;;;;;;;25.00;15.65;;;;;;;15.26;100.00;101028.03;5069264;28;20030;-78
2022/07/01 05:24:08;;;;;;;23.63;14.38;;;;;;;15.17;100.00;101040.97;5067715;28;20105;-79
2022/07/01 05:26:34;;;;;;;20.63;14.02;;;;;;;15.06;100.00;101045.88;5083942;28;20494;-79
2022/07/01 05:28:59;;;;;;;26.05;14.23;;;;;;;15.36;100.00;101038.06;5063587;28;20246;-80
2022/07/01 05:31:36;;;;;;;25.02;13.68;;;;;;;15.54;100.00;101039.84;5067610;28;20024;-80
2022/07/01 05:34:01;;;;;;;25.60;14.43;;;;;;;15.62;100.00;101038.31;5083937;28;20225;-80
2022/07/01 05:36:27;;;;;;;23.10;13.48;;;;;;;15.70;100.00;101059.69;5069847;28;20548;-78
2022/07/01 05:38:52;;;;;;;20.35;12.73;;;;;;;15.81;100.00;101054.78;5071980;28;20762;-80
2022/07/01 05:41:18;;;;;;;19.55;12.48;;;;;;;15.73;100.00;101048.00;5049900;28;20028;-80
2022/07/01 05:43:44;;;;;;;22.70;12.75;;;;;;;15.60;100.00;101059.91;5069756;28;20031;-80
2022/07/01 05:46:09;;;;;;;19.20;12.68;;;;;;;16.06;100.00;101067.16;5052035;28;20111;-79
2022/07/01 05:48:35;;;;;;;22.15;13.45;;;;;;;16.16;100.00;101072.44;5032253;28;20485;-80
2022/07/01 05:51:00;;;;;;;21.50;12.00;;;;;;;16.27;100.00;101088.81;5087119;28;20045;-79
2022/07/01 05:53:26;;;;;;;25.27;12.40;;;;;;;16.37;100.00;101099.59;5049571;28;20418;-80
2022/07/01 05:55:51;;;;;;;20.98;11.60;;;;;;;16.46;100.00;101108.78;5085653;28;20203;-79
2022/07/01 05:58:17;;;;;;;20.63;11.15;;;;;;;16.27;100.00;101130.28;5086064;28;20040;-79
2022/07/01 06:00:43;;;;;;;19.60;11.90;;;;;;;16.35;100.00;101133.13;5086268;28;20047;-79
2022/07/01 06:03:12;;;;;;;18.63;11.23;;;;;;;16.37;100.00;101135.56;5083713;28;20038;-77
2022/07/01 06:05:38;;;;;;;17.27;10.02;;;;;;;16.25;100.00;101138.06;5068255;28;20134;-79
2022/07/01 06:08:05;;;;;;;19.30;9.80;;;;;;;16.03;100.00;101147.16;5066593;28;20115;-78
2022/07/01 06:10:31;;;;;;;15.70;9.38;;;;;;;15.92;100.00;101152.94;5068997;28;20035;-78
2022/07/01 06:12:57;;;;;;;17.30;8.75;;;;;;;16.04;100.00;101151.59;5084414;28;20513;-79
2022/07/01 06:15:23;;;;;;;13.65;9.25;;;;;;;16.01;100.00;101147.47;5051593;28;20795;-79
2022/07/01 06:17:49;;;;;;;14.55;8.90;;;;;;;15.53;100.00;101151.53;5066144;28;20293;-79
2022/07/01 06:20:15;;;;;;;14.90;8.57;;;;;;;15.70;100.00;101139.03;5070398;28;20054;-78
2022/07/01 06:22:40;;;;;;;16.95;8.57;;;;;;;15.50;100.00;101160.44;5085148;28;20052;-79
2022/07/01 06:25:06;;;;;;;18.10;8.70;;;;;;;15.86;100.00;101147.84;5070653;28;20448;-79
2022/07/01 06:27:31;;;;;;;19.05;8.93;;;;;;;15.99;100.00;101158.03;5088550;28;20055;-78
2022/07/01 06:29:57;;;;;;;15.45;8.80;;;;;;;16.11;100.00;101155.53;5087422;28;20032;-80
2022/07/01 06:32:22;;;;;;;12.68;8.55;;;;;;;16.06;100.00;101160.38;5071055;28;20028;-80
2022/07/01 06:34:51;;;;;;;15.70;9.13;;;;;;;16.03;100.00;101163.75;5068822;28;20085;-78
2022/07/01 06:37:20;;;;;;;14.23;8.07;;;;;;;16.31;100.00;101170.03;5089304;28;20050;-79
2022/07/01 06:39:45;;;;;;;12.77;9.27;;;;;;;16.42;100.00;101187.22;5071660;28;20024;-79
2022/07/01 06:42:11;;;;;;;14.43;8.50;;;;;;;16.47;100.00;101187.88;5070536;28;20039;-79
2022/07/01 06:44:40;;;;;;;19.90;8.90;;;;;;;16.38;100.00;101200.03;5072028;28;20320;-78
2022/07/01 06:47:05;;;;;;;17.60;8.40;;;;;;;16.39;100.00;101196.94;5069663;28;20561;-78
2022/07/01 06:49:31;;;;;;;12.10;7.90;;;;;;;16.59;100.00;101214.19;5087676;28;20126;-78
2022/07/01 06:51:56;;;;;;;17.40;8.82;;;;;;;16.73;100.00;101203.88;5049946;28;20023;-78
2022/07/01 06:54:22;;;;;;;14.40;7.82;;;;;;;16.61;100.00;101223.00;5069242;28;20434;-79
2022/07/01 06:56:47;;;;;;;14.90;7.55;;;;;;;16.82;100.00;101238.00;5035909;28;20028;-78
2022/07/01 06:59:14;;;;;;;15.70;7.65;;;;;;;16.82;100.00;101251.84;5069560;28;20075;-79
2022/07/01 07:01:44;;;;;;;13.30;6.75;;;;;;;17.01;100.00;101259.16;5049903;28;20062;-77
2022/07/01 07:04:09;;;;;;;15.73;7.60;;;;;;;17.39;100.00;101278.13;5065556;28;20043;-77
2022/07/01 07:06:35;;;;;;;13.10;6.00;;;;;;;16.92;100.00;101288.75;5086517;28;20032;-78
2022/07/01 07:09:00;;;;;;;10.38;5.28;;;;;;;17.15;100.00;101293.16;5084312;28;20366;-78
2022/07/01 07:11:27;;;;;;;10.55;5.15;;;;;;;17.22;100.00;101289.94;5050013;28;20028;-78
2022/07/01 07:13:52;;;;;;;13.00;4.40;;;;;;;17.10;100.00;101309.88;5067115;28;20127;-78
2022/07/01 07:16:20;;;;;;;11.02;4.20;;;;;;;17.05;100.00;101319.16;5067845;28;20036;-78
2022/07/01 07:18:47;;;;;;;8.18;4.15;;;;;;;16.82;100.00;101334.06;5079673;28;20028;-78
2022/07/01 07:21:12;;;;;;;11.68;4.30;;;;;;;16.96;100.00;101332.13;5067680;28;20044;-79
2022/07/01 07:23:37;;;;;;;8.15;3.88;;;;;;;17.40;100.00;101335.22;5084619;28;20098;-78
2022/07/01 07:26:03;;;;;;;10.55;3.38;;;;;;;17.22;100.00;101339.81;5048627;28;20038;-77
2022/07/01 07:28:28;;;;;;;10.95;3.92;;;;;;;17.01;100.00;101340.28;5064846;28;20679;-78
2022/07/01 07:30:54;;;;;;;11.27;4.18;;;;;;;17.17;100.00;101349.06;5084393;28;20036;-78
2022/07/01 07:33:19;;;;;;;10.48;4.45;;;;;;;17.41;100.00;101353.44;5062823;28;20393;-77
2022/07/01 07:35:44;;;;;;;9.65;4.70;;;;;;;17.16;100.00;101363.22;5031885;28;20055;-77
2022/07/01 07:38:10;;;;;;;10.38;5.10;;;;;;;17.49;100.00;101366.53;5064222;28;20029;-77
2022/07/01 07:40:35;;;;;;;10.75;4.90;;;;;;;17.52;100.00;101363.16;5085570;28;20078;-78
2022/07/01 07:43:03;;;;;;;9.95;4.82;;;;;;;17.97;100.00;101368.66;5063408;28;20318;-79
2022/07/01 07:45:29;;;;;;;11.30;4.15;;;;;;;17.87;100.00;101380.00;5033714;28;20024;-78
2022/07/01 07:47:54;;;;;;;8.85;4.25;;;;;;;18.14;100.00;101386.50;5060877;28;20187;-77
2022/07/01 07:50:22;;;;;;;9.27;4.18;;;;;;;17.57;100.00;101396.28;5066420;28;20032;-79
2022/07/01 07:52:47;;;;;;;8.25;3.65;;;;;;;16.96;100.00;101419.94;5063460;28;20024;-78
2022/07/01 07:55:13;;;;;;;12.15;4.15;;;;;;;16.95;100.00;101410.78;5066872;28;20043;-78
2022/07/01 07:57:39;;;;;;;7.80;3.75;;;;;;;16.98;100.00;101396.31;5065552;28;20055;-78
2022/07/01 08:00:08;;;;;;;10.38;3.45;;;;;;;16.70;100.00;101396.34;5083816;28;20500;-78
2022/07/01 08:02:36;;;;;;;7.50;2.88;;;;;;;16.74;100.00;101402.06;5080611;28;20028;-78
2022/07/01 08:05:02;;;;;;;11.68;3.17;;;;;;;17.08;100.00;101389.72;5047910;28;20518;-77
2022/07/01 08:07:29;;;;;;;7.38;3.25;;;;;;;17.61;100.00;101397.31;5082570;28;20425;-78
2022/07/01 08:09:55;;;;;;;12.25;3.33;;;;;;;18.17;100.00;101396.97;5048654;28;20028;-78
2022/07/01 08:12:21;;;;;;;12.43;3.25;;;;;;;18.74;100.00;101407.22;5065842;28;20016;-77
2022/07/01 08:14:47;;;;;;;10.85;3.53;;;;;;;18.69;100.00;101436.00;5083780;28;20024;-77
2022/07/01 08:17:12;;;;;;;11.13;3.80;;;;;;;18.69;100.00;101441.56;5046572;28;20101;-76
2022/07/01 08:19:38;;;;;;;12.35;3.40;;;;;;;18.74;100.00;101441.41;5064881;28;20028;-77
2022/07/01 08:22:03;;;;;;;9.65;3.58;;;;;;;19.02;100.00;101448.66;5063963;28;20376;-78
2022/07/01 08:24:29;;;;;;;9.23;3.70;;;;;;;18.85;100.00;101453.03;5065639;28;20028;-77
2022/07/01 08:26:54;;;;;;;11.25;3.47;;;;;;;19.20;100.00;101449.50;5048566;28;20058;-78
2022/07/01 08:29:20;;;;;;;12.38;3.63;;;;;;;18.58;100.00;101469.91;5065423;28;20343;-78
2022/07/01 08:31:47;;;;;;;7.78;3.35;;;;;;;19.28;100.00;101468.97;5062074;28;20348;-78
2022/07/01 08:34:12;;;;;;;6.10;3.03;;;;;;;19.32;100.00;101462.75;5027467;28;20351;-79
2022/07/01 08:36:40;;;;;;;12.43;3.42;;;;;;;19.59;100.00;101467.16;5029396;28;20174;-76
2022/07/01 08:39:05;;;;;;;6.35;2.60;;;;;;;20.13;100.00;101470.34;5031805;28;20490;-77
2022/07/01 08:41:31;;;;;;;7.35;2.20;;;;;;;19.83;100.00;101470.25;5051345;28;20176;-77
2022/07/01 08:43:56;;;;;;;7.55;2.20;;;;;;;19.97;100.00;101483.16;5032444;28;20371;-75
2022/07/01 08:46:23;;;;;;;9.07;2.50;;;;;;;19.37;100.00;101494.00;5067530;28;20072;-75
2022/07/01 08:48:50;;;;;;;7.63;2.55;;;;;;;18.89;100.00;101494.91;5062289;28;20111;-75
2022/07/01 08:51:16;;;;;;;6.47;2.97;;;;;;;19.95;100.00;101488.25;5033775;28;20027;-76
2022/07/01 08:53:41;;;;;;;5.85;2.25;;;;;;;20.72;100.00;101489.16;5067020;28;20099;-77
2022/07/01 08:58:52;;;;;;;7.57;2.20;;;;;;;21.53;100.00;101503.09;5054898;28;20425;-76
2022/07/01 09:01:24;;;;;;;9.63;2.63;;;;;;;21.00;100.00;101513.75;5052728;28;20108;-76
2022/07/01 09:03:52;;;;;;;;;;;;;;;19.25;100.00;101535.50;5062426;28;20046;-76
2022/07/01 09:06:28;;;;;;;8.77;2.00;;;;;;;18.76;100.00;101540.25;5068092;28;19952;-79
2022/07/01 09:08:54;;;;;;;4.97;1.88;;;;;;;19.00;100.00;101537.09;5083932;28;20028;-78
2022/07/01 09:11:20;;;;;;;5.78;1.35;;;;;;;18.40;100.00;101544.81;5067248;28;20034;-78
2022/07/01 09:14:06;;;;;;;5.75;1.55;;;;;;;18.32;100.00;101535.31;5086073;28;20016;-79
2022/07/01 09:16:44;;;;;;;6.95;1.58;;;;;;;18.50;100.00;101538.19;5083734;28;20028;-78
2022/07/01 09:19:10;;;;;;;9.13;1.90;;;;;;;18.08;100.00;101541.19;5064316;28;20023;-78
2022/07/01 09:21:35;;;;;;;6.00;2.13;;;;;;;18.70;100.00;101543.16;5068284;28;20077;-78
2022/07/01 09:24:22;;;;;;;6.78;1.70;;;;;;;18.34;100.00;101555.22;5082724;28;20024;-77
2022/07/01 09:26:59;;;;;;;7.78;2.33;;;;;;;18.64;100.00;101550.00;5068567;28;20497;-77
2022/07/01 09:29:31;;;;;;;5.82;1.80;;;;;;;19.65;100.00;101552.06;5085381;28;20497;-77
2022/07/01 09:31:57;;;;;;;5.50;1.50;;;;;;;20.17;100.00;101559.63;5082481;28;20032;-78
2022/07/01 09:34:23;;;;;;;5.60;1.48;;;;;;;20.39;100.00;101720.09;5082855;28;20055;-77
2022/07/01 09:36:57;;;;;;;5.47;1.50;;;;;;;19.06;100.00;101724.78;5064389;28;20489;-77
2022/07/01 09:39:23;;;;;;;2.20;1.08;;;;;;;19.97;100.00;101730.84;5065787;28;20020;-78
2022/07/01 09:41:49;;;;;;;6.43;1.35;;;;;;;19.10;100.00;101732.16;5065992;28;20519;-80
2022/07/01 09:44:14;;;;;;;5.68;1.30;;;;;;;18.15;100.00;101732.22;5082889;28;20385;-79
2022/07/01 09:46:57;;;;;;;5.07;1.55;;;;;;;18.11;100.00;101720.13;5046135;28;20428;-78
2022/07/01 09:49:24;;;;;;;5.53;1.80;;;;;;;17.95;100.00;101717.66;5081401;28;20528;-78
2022/07/01 09:51:51;;;;;;;4.13;1.33;;;;;;;17.85;100.00;101701.22;5065391;28;20036;-79
2022/07/01 09:54:17;;;;;;;4.10;1.10;;;;;;;17.90;100.00;101687.28;5032752;28;20043;-78
2022/07/01 09:56:42;;;;;;;6.22;1.50;;;;;;;17.77;100.00;101704.72;5084748;28;20032;-78
2022/07/01 09:59:08;;;;;;;4.43;1.85;;;;;;;18.70;100.00;101695.09;5065716;28;20052;-77
2022/07/01 10:01:34;;;;;;;3.13;1.40;;;;;;;19.37;100.00;101702.50;5048507;28;20035;-77
2022/07/01 10:04:01;;;;;;;3.63;1.20;;;;;;;19.77;100.00;101712.81;5061816;28;20529;-77
2022/07/01 10:06:58;;;;;;;5.80;1.67;;;;;;;19.58;100.00;101718.63;5084816;28;20097;-77
2022/07/01 10:09:43;;;;;;;6.13;1.90;;;;;;;19.97;100.00;101728.91;5085213;28;20031;-78
2022/07/01 10:12:23;;;;;;;5.25;1.75;;;;;;;20.51;100.00;101722.22;5083572;28;20024;-78
2022/07/01 10:14:49;;;;;;;5.95;2.03;;;;;;;20.76;100.00;101745.66;5066687;28;20505;-78
2022/07/01 10:17:43;;;;;;;9.13;2.20;;;;;;;20.76;100.00;101737.31;5062375;28;20047;-78
2022/07/01 10:20:16;;;;;;;;;;;;;;;20.68;100.00;101750.09;5075357;28;20115;-78
2022/07/01 10:22:43;;;;;;;8.77;2.17;;;;;;;21.36;100.00;101734.69;5064157;28;19920;-77
2022/07/01 10:25:41;;;;;;;5.70;2.10;;;;;;;20.74;100.00;101745.16;5065981;28;20503;-78
2022/07/01 10:28:23;;;;;;;6.45;1.92;;;;;;;21.17;100.00;101744.25;5082782;28;20027;-77
2022/07/01 10:30:50;;;;;;;4.87;1.53;;;;;;;20.11;100.00;101756.59;5086558;28;20030;-78
2022/07/01 10:33:33;;;;;;;6.35;1.63;;;;;;;18.71;100.00;101761.47;5079440;28;20032;-79
2022/07/01 10:36:10;;;;;;;6.30;1.80;;;;;;;18.96;100.00;101761.19;5067133;28;20089;-78
2022/07/01 10:38:55;;;;;;;8.43;1.92;;;;;;;18.93;100.00;101757.06;5064850;28;20036;-76
2022/07/01 10:41:25;;;;;;;8.40;2.40;;;;;;;18.87;100.00;101758.31;5083235;28;20487;-77
2022/07/01 10:43:53;;;;;;;7.70;2.22;;;;;;;19.19;100.00;101751.66;5082961;28;20448;-75
2022/07/01 10:46:45;;;;;;;7.93;1.88;;;;;;;18.87;100.00;101755.53;5083653;28;20035;-78
2022/07/01 10:49:14;;;;;;;8.70;2.10;;;;;;;18.93;100.00;101762.63;5061096;28;20093;-78
2022/07/01 10:51:51;;;;;;;9.13;2.08;;;;;;;19.08;100.00;101761.41;5065646;28;20173;-77
2022/07/01 10:54:39;;;;;;;6.80;2.00;;;;;;;19.29;100.00;101759.72;5063741;28;20038;-77
2022/07/01 10:57:17;;;;;;;7.63;1.80;;;;;;;18.99;100.00;101766.06;5065310;28;20019;-78
2022/07/01 10:59:49;;;;;;;7.22;2.00;;;;;;;18.51;100.00;101784.16;5063135;28;20139;-80
2022/07/01 11:02:21;;;;;;;6.55;2.10;;;;;;;18.54;100.00;101747.44;5061237;28;20449;-77
2022/07/01 11:04:48;;;;;;;7.47;2.10;;;;;;;18.22;100.00;101731.78;5082583;28;20279;-77
2022/07/01 11:07:13;;;;;;;10.13;2.70;;;;;;;18.40;100.00;101714.19;5062692;28;20040;-78
2022/07/01 11:09:39;;;;;;;8.25;2.30;;;;;;;17.96;100.00;101724.88;5084183;28;20028;-79
2022/07/01 11:12:06;;;;;;;7.18;2.53;;;;;;;18.42;100.00;101691.66;5065346;28;20024;-76
2022/07/01 11:14:40;;;;;;;6.10;2.45;;;;;;;17.99;100.00;101690.16;5065847;28;20034;-77
2022/07/01 11:17:06;;;;;;;9.93;3.08;;;;;;;19.44;100.00;101679.81;5081498;28;20024;-76
2022/07/01 11:19:32;;;;;;;7.53;2.70;;;;;;;20.33;100.00;101691.59;5081898;28;20040;-77